sim
Sign-in with your pilot id or email,
or register
Callsign
Passwort

Schedule Details

Flight Number: DLH2721 (2)
Departure: Dusseldorf International Airport (EDDL) at 17:50
Arrival: Munich Airport (EDDM) at 19:00
Route: Lufthansa Passenger Schedule. Enter filed route here before submitting Pirep.

Weather Information
Getting current METAR information for EDDL 211120Z VRB03KT CAVOK 24/07 Q1015 NOSIG
Getting current METAR information for EDDM 211120Z 06004KT 010V130 CAVOK 21/13 Q1017 NOSIG

Schedule Frequency

Route Map